createdAt,value
2018-10-02T00:01:16.741Z,3.08
2018-10-02T00:03:45.296Z,2.70
2018-10-02T00:06:13.806Z,2.57
2018-10-02T00:08:42.361Z,2.52
2018-10-02T00:11:16.150Z,2.22
2018-10-02T00:13:50.038Z,2.40
2018-10-02T00:16:18.545Z,2.25
2018-10-02T00:18:47.104Z,2.30
2018-10-02T00:21:15.656Z,2.40
2018-10-02T00:23:44.216Z,2.60
2018-10-02T00:26:12.742Z,2.37
2018-10-02T00:28:41.304Z,2.30
2018-10-02T00:31:10.945Z,2.30
2018-10-02T00:33:39.518Z,2.22
2018-10-02T00:36:08.085Z,2.70
2018-10-02T00:38:36.658Z,2.40
2018-10-02T00:41:05.192Z,2.60
2018-10-02T00:43:33.789Z,2.20
2018-10-02T00:46:02.357Z,2.42
2018-10-02T00:48:30.910Z,2.55
2018-10-02T00:50:59.494Z,2.45
2018-10-02T00:53:28.626Z,1.80
2018-10-02T00:55:57.217Z,2.33
2018-10-02T00:58:26.505Z,1.92
2018-10-02T01:00:55.067Z,2.40
2018-10-02T01:03:23.605Z,2.58
2018-10-02T01:05:52.153Z,2.95
2018-10-02T01:08:20.692Z,3.33
2018-10-02T01:10:49.243Z,3.20
2018-10-02T01:13:17.769Z,4.73
2018-10-02T01:15:46.337Z,4.23
2018-10-02T01:18:14.938Z,4.30
2018-10-02T01:20:43.537Z,4.40
2018-10-02T01:23:12.063Z,3.80
2018-10-02T01:25:40.601Z,3.80
2018-10-02T01:28:09.333Z,3.75
2018-10-02T01:30:37.884Z,3.45
2018-10-02T01:33:06.677Z,3.10
2018-10-02T01:35:35.209Z,3.75
2018-10-02T01:38:03.726Z,3.33
2018-10-02T01:40:32.266Z,4.03
2018-10-02T01:43:00.771Z,3.55
2018-10-02T01:45:29.305Z,3.25
2018-10-02T01:47:57.833Z,2.67
2018-10-02T01:50:26.361Z,2.07
2018-10-02T01:52:54.876Z,1.70
2018-10-02T01:55:23.409Z,2.70
2018-10-02T01:57:51.916Z,3.00
2018-10-02T02:00:20.441Z,4.85
2018-10-02T02:02:48.985Z,4.12
2018-10-02T02:05:17.533Z,3.95
2018-10-02T02:07:46.049Z,4.12
2018-10-02T02:10:14.591Z,3.45
2018-10-02T02:12:43.097Z,3.42
2018-10-02T02:15:11.642Z,3.27
2018-10-02T02:17:40.153Z,3.15
2018-10-02T02:20:08.731Z,3.40
2018-10-02T02:22:37.267Z,3.20
2018-10-02T02:25:05.876Z,2.50
2018-10-02T02:27:34.394Z,2.60
2018-10-02T02:30:02.966Z,2.60
2018-10-02T02:32:31.481Z,3.10
2018-10-02T02:35:00.027Z,2.50
2018-10-02T02:37:28.544Z,2.75
2018-10-02T02:39:57.094Z,3.10
2018-10-02T02:42:25.622Z,2.80
2018-10-02T02:44:54.165Z,3.45
2018-10-02T02:47:28.092Z,2.72
2018-10-02T02:50:01.871Z,2.42
2018-10-02T02:52:34.670Z,2.70
2018-10-02T02:55:03.177Z,2.70
2018-10-02T02:57:31.682Z,3.08
2018-10-02T03:00:00.293Z,3.67
2018-10-02T03:02:28.834Z,3.00
2018-10-02T03:04:57.346Z,2.40
2018-10-02T03:07:25.876Z,3.00
2018-10-02T03:09:54.369Z,2.60
2018-10-02T03:12:22.894Z,2.93
2018-10-02T03:14:51.397Z,2.73
2018-10-02T03:17:19.953Z,2.93
2018-10-02T03:19:48.489Z,2.53
2018-10-02T03:22:17.018Z,2.30
2018-10-02T03:24:45.701Z,2.53
2018-10-02T03:27:14.309Z,2.97
2018-10-02T03:29:42.810Z,2.20
2018-10-02T03:32:11.584Z,2.60
2018-10-02T03:34:40.555Z,2.57
2018-10-02T03:37:09.076Z,2.80
2018-10-02T03:39:37.952Z,3.30
2018-10-02T03:42:06.564Z,2.73
2018-10-02T03:44:35.055Z,2.43
2018-10-02T03:47:03.577Z,2.67
2018-10-02T03:49:32.074Z,2.27
2018-10-02T03:52:00.581Z,2.60
2018-10-02T03:54:29.553Z,2.47
2018-10-02T03:56:58.069Z,2.87
2018-10-02T03:59:26.548Z,2.47
2018-10-02T04:01:55.081Z,2.40
2018-10-02T04:04:23.564Z,3.00
2018-10-02T04:06:52.078Z,3.17
2018-10-02T04:09:20.561Z,3.70
2018-10-02T04:11:49.073Z,3.20
2018-10-02T04:14:17.562Z,3.20
2018-10-02T04:16:46.081Z,3.30
2018-10-02T04:19:14.642Z,2.80
2018-10-02T04:21:43.161Z,2.47
2018-10-02T04:24:11.645Z,3.23
2018-10-02T04:26:40.183Z,2.83
2018-10-02T04:29:08.681Z,2.80
2018-10-02T04:31:38.157Z,2.77
2018-10-02T04:34:06.718Z,2.90
2018-10-02T04:36:35.285Z,3.07
2018-10-02T04:39:05.077Z,2.57
2018-10-02T04:41:33.589Z,2.83
2018-10-02T04:44:02.070Z,2.77
2018-10-02T04:46:30.557Z,2.80
2018-10-02T04:48:59.073Z,3.40
2018-10-02T04:51:27.541Z,2.63
2018-10-02T04:53:56.045Z,3.37
2018-10-02T04:56:24.618Z,3.30
2018-10-02T04:58:53.070Z,2.90
2018-10-02T05:01:21.583Z,3.03
2018-10-02T05:03:50.094Z,3.40
2018-10-02T05:06:18.582Z,3.43
2018-10-02T05:08:47.130Z,3.70
2018-10-02T05:11:15.606Z,3.80
2018-10-02T05:13:46.326Z,3.27
2018-10-02T05:16:14.865Z,3.10
2018-10-02T05:18:43.362Z,2.93
2018-10-02T05:21:14.168Z,3.03
2018-10-02T05:23:44.519Z,3.10
2018-10-02T05:26:14.593Z,3.07
2018-10-02T05:28:44.914Z,3.07
2018-10-02T05:31:15.376Z,3.87
2018-10-02T05:33:44.017Z,3.37
2018-10-02T05:36:12.537Z,3.27
2018-10-02T05:38:41.131Z,6.80
2018-10-02T05:41:09.645Z,7.13
2018-10-02T05:43:38.242Z,9.67
2018-10-02T05:46:06.866Z,11.93
2018-10-02T05:48:35.519Z,11.33
2018-10-02T05:51:04.029Z,8.97
2018-10-02T05:53:32.747Z,9.63
2018-10-02T05:56:03.841Z,8.00
2018-10-02T05:58:33.777Z,11.37
2018-10-02T06:01:02.385Z,11.40
2018-10-02T06:03:31.223Z,9.67
2018-10-02T06:06:05.457Z,10.73
2018-10-02T06:08:37.715Z,11.23
2018-10-02T06:11:06.793Z,11.20
2018-10-02T06:13:35.345Z,10.63
2018-10-02T06:16:03.896Z,8.47
2018-10-02T06:18:34.093Z,7.53
2018-10-02T06:21:02.709Z,7.60
2018-10-02T06:23:31.252Z,6.13
2018-10-02T06:25:59.769Z,6.07
2018-10-02T06:28:28.438Z,5.47
2018-10-02T06:30:57.897Z,4.63
2018-10-02T06:33:26.428Z,4.70
2018-10-02T06:35:54.958Z,4.20
2018-10-02T06:38:23.618Z,4.40
2018-10-02T06:40:52.068Z,4.97
2018-10-02T06:43:22.271Z,3.30
2018-10-02T06:45:50.938Z,3.70
2018-10-02T06:48:19.557Z,3.83
2018-10-02T06:50:48.146Z,3.40
2018-10-02T06:53:16.674Z,4.00
2018-10-02T06:55:45.214Z,3.60
2018-10-02T06:58:13.787Z,3.83
2018-10-02T07:00:42.433Z,3.87
2018-10-02T07:03:10.977Z,3.97
2018-10-02T07:05:39.624Z,3.77
2018-10-02T07:08:08.222Z,3.33
2018-10-02T07:10:38.148Z,3.73
2018-10-02T07:13:06.999Z,3.90
2018-10-02T07:15:35.626Z,3.03
2018-10-02T07:18:04.182Z,3.60
2018-10-02T07:20:34.604Z,3.97
2018-10-02T07:23:03.195Z,4.23
2018-10-02T07:25:31.805Z,4.43
2018-10-02T07:28:01.121Z,3.83
2018-10-02T07:30:29.731Z,4.27
2018-10-02T07:32:58.397Z,4.87
2018-10-02T07:35:27.021Z,4.53
2018-10-02T07:37:55.533Z,4.23
2018-10-02T07:40:24.090Z,4.30
2018-10-02T07:42:52.617Z,4.03
2018-10-02T07:45:21.182Z,4.00
2018-10-02T07:47:49.714Z,4.57
2018-10-02T07:50:18.382Z,5.03
2018-10-02T07:52:47.037Z,4.43
2018-10-02T07:55:15.722Z,4.57
2018-10-02T07:57:44.261Z,4.23
2018-10-02T08:00:12.910Z,4.03
2018-10-02T08:02:41.522Z,4.20
2018-10-02T08:05:10.276Z,4.60
2018-10-02T08:07:38.845Z,3.80
2018-10-02T08:10:10.366Z,3.47
2018-10-02T08:12:38.901Z,3.43
2018-10-02T08:15:07.588Z,4.07
2018-10-02T08:17:36.201Z,3.33
2018-10-02T08:20:05.036Z,3.00
2018-10-02T08:22:34.507Z,2.83
2018-10-02T08:25:03.685Z,3.10
2018-10-02T08:27:34.648Z,3.33
2018-10-02T08:30:03.376Z,3.07
2018-10-02T08:32:31.916Z,3.13
2018-10-02T08:35:00.651Z,3.27
2018-10-02T08:37:30.673Z,2.73
2018-10-02T08:39:59.345Z,3.00
2018-10-02T08:42:27.867Z,2.60
2018-10-02T08:44:56.505Z,2.90
2018-10-02T08:47:31.100Z,3.63
2018-10-02T08:49:59.782Z,2.73
2018-10-02T08:52:28.286Z,3.10
2018-10-02T08:54:56.806Z,2.80
2018-10-02T08:57:25.312Z,2.93
2018-10-02T08:59:53.888Z,3.40
2018-10-02T09:02:22.445Z,3.50
2018-10-02T09:04:51.029Z,2.63
2018-10-02T09:07:19.607Z,2.80
2018-10-02T09:09:48.125Z,2.90
2018-10-02T09:12:16.621Z,2.13
2018-10-02T09:14:45.147Z,2.57
2018-10-02T09:17:13.977Z,2.53
2018-10-02T09:19:42.564Z,2.40
2018-10-02T09:22:11.085Z,2.50
2018-10-02T09:24:40.013Z,3.00
2018-10-02T09:27:08.509Z,2.87
2018-10-02T09:29:42.158Z,2.70
2018-10-02T09:32:15.989Z,2.40
2018-10-02T09:34:49.861Z,2.60
2018-10-02T09:37:23.743Z,2.20
2018-10-02T09:39:57.601Z,2.80
2018-10-02T09:42:31.418Z,2.47
2018-10-02T09:44:59.957Z,3.13
2018-10-02T09:47:28.489Z,2.43
2018-10-02T09:49:57.128Z,2.77
2018-10-02T09:52:25.802Z,2.60
2018-10-02T09:54:54.435Z,2.70
2018-10-02T09:57:23.630Z,2.17
2018-10-02T09:59:53.179Z,2.37
2018-10-02T10:02:37.243Z,2.27
2018-10-02T10:05:05.946Z,2.60
2018-10-02T10:07:34.477Z,2.70
2018-10-02T10:10:03.030Z,2.13
2018-10-02T10:12:31.649Z,2.10
2018-10-02T10:15:00.170Z,2.20
2018-10-02T10:17:29.430Z,2.37
2018-10-02T10:19:58.038Z,2.40
2018-10-02T10:22:26.561Z,2.20
2018-10-02T10:24:55.104Z,2.40
2018-10-02T10:27:23.664Z,2.20
2018-10-02T10:29:52.198Z,2.57
2018-10-02T10:32:20.756Z,2.73
2018-10-02T10:34:49.304Z,3.23
2018-10-02T10:37:17.851Z,2.73
2018-10-02T10:39:46.420Z,2.30
2018-10-02T10:42:15.010Z,3.10
2018-10-02T10:44:43.526Z,2.70
2018-10-02T10:47:12.158Z,2.93
2018-10-02T10:49:44.569Z,2.37
2018-10-02T10:52:14.082Z,2.27
2018-10-02T10:54:52.520Z,2.83
2018-10-02T10:57:21.121Z,3.20
2018-10-02T10:59:49.815Z,3.23
2018-10-02T11:02:18.397Z,2.73
2018-10-02T11:04:46.963Z,2.93
2018-10-02T11:07:15.514Z,3.27
2018-10-02T11:09:48.722Z,2.90
2018-10-02T11:12:17.417Z,5.73
2018-10-02T11:14:51.491Z,2.70
2018-10-02T11:17:20.279Z,2.20
2018-10-02T11:19:48.858Z,2.77
2018-10-02T11:22:17.445Z,3.13
2018-10-02T11:24:45.990Z,3.03
2018-10-02T11:27:14.621Z,2.63
2018-10-02T11:29:43.179Z,2.70
2018-10-02T11:32:11.742Z,3.30
2018-10-02T11:34:40.262Z,2.80
2018-10-02T11:37:08.975Z,3.00
2018-10-02T11:39:37.535Z,3.63
2018-10-02T11:42:06.145Z,3.63
2018-10-02T11:44:35.838Z,2.83
2018-10-02T11:47:04.390Z,3.07
2018-10-02T11:49:39.125Z,2.27
2018-10-02T11:52:08.189Z,3.20
2018-10-02T11:54:42.393Z,3.03
2018-10-02T11:57:11.144Z,2.93
2018-10-02T11:59:39.745Z,3.03
2018-10-02T12:02:08.331Z,2.70
2018-10-02T12:04:37.257Z,4.17
2018-10-02T12:07:06.014Z,3.07
2018-10-02T12:09:34.522Z,3.07
2018-10-02T12:12:03.097Z,3.00
2018-10-02T12:14:31.759Z,3.20
2018-10-02T12:17:00.266Z,2.93
2018-10-02T12:19:28.960Z,3.30
2018-10-02T12:21:57.634Z,4.53
2018-10-02T12:24:26.187Z,4.23
2018-10-02T12:26:54.744Z,3.37
2018-10-02T12:29:23.254Z,2.90
2018-10-02T12:31:51.948Z,2.90
2018-10-02T12:34:20.466Z,2.73
2018-10-02T12:36:49.378Z,3.03
2018-10-02T12:39:17.957Z,3.23
2018-10-02T12:41:46.449Z,2.77
2018-10-02T12:44:14.974Z,2.70
2018-10-02T12:46:43.479Z,2.40
2018-10-02T12:49:12.031Z,2.60
2018-10-02T12:51:40.585Z,2.50
2018-10-02T12:54:09.120Z,2.27
2018-10-02T12:56:37.642Z,2.77
2018-10-02T12:59:06.225Z,3.03
2018-10-02T13:01:34.737Z,2.73
2018-10-02T13:04:03.304Z,2.43
2018-10-02T13:06:31.814Z,2.90
2018-10-02T13:09:00.350Z,1.90
2018-10-02T13:11:28.865Z,2.90
2018-10-02T13:13:57.397Z,2.00
2018-10-02T13:16:25.954Z,2.57
2018-10-02T13:18:54.494Z,2.87
2018-10-02T13:21:23.043Z,2.80
2018-10-02T13:23:51.599Z,2.53
2018-10-02T13:26:20.117Z,2.30
2018-10-02T13:28:48.668Z,2.80
2018-10-02T13:31:17.189Z,2.10
2018-10-02T13:33:45.737Z,2.60
2018-10-02T13:36:14.266Z,2.80
2018-10-02T13:38:42.802Z,2.63
2018-10-02T13:41:11.309Z,2.50
2018-10-02T13:43:39.876Z,2.70
2018-10-02T13:46:08.398Z,2.87
2018-10-02T13:48:36.940Z,2.40
2018-10-02T13:51:05.821Z,2.37
2018-10-02T13:53:34.766Z,2.50
2018-10-02T13:56:03.304Z,2.40
2018-10-02T13:58:31.845Z,2.60
2018-10-02T14:01:00.362Z,2.63
2018-10-02T14:03:28.898Z,2.47
2018-10-02T14:05:57.438Z,2.47
2018-10-02T14:08:25.985Z,2.63
2018-10-02T14:10:54.544Z,2.73
2018-10-02T14:13:23.077Z,1.80
2018-10-02T14:15:51.600Z,2.03
2018-10-02T14:18:20.170Z,2.03
2018-10-02T14:20:48.718Z,2.53
2018-10-02T14:23:17.341Z,2.33
2018-10-02T14:25:45.861Z,2.60
2018-10-02T14:28:14.567Z,2.80
2018-10-02T14:30:42.972Z,1.97
2018-10-02T14:33:11.521Z,2.53
2018-10-02T14:35:40.021Z,2.30
2018-10-02T14:38:08.598Z,2.00
2018-10-02T14:40:37.293Z,2.03
2018-10-02T14:43:06.071Z,2.27
2018-10-02T14:45:34.554Z,2.40
2018-10-02T14:48:03.142Z,2.43
2018-10-02T14:50:31.657Z,1.70
2018-10-02T14:53:00.217Z,1.60
2018-10-02T14:55:28.773Z,2.20
2018-10-02T14:57:57.342Z,2.40
2018-10-02T15:00:25.921Z,2.27
2018-10-02T15:02:54.417Z,2.37
2018-10-02T15:05:22.966Z,2.53
2018-10-02T15:07:51.585Z,2.27
2018-10-02T15:10:20.162Z,2.30
2018-10-02T15:12:48.699Z,1.90
2018-10-02T15:15:17.249Z,2.90
2018-10-02T15:17:45.816Z,1.80
2018-10-02T15:20:14.374Z,3.10
2018-10-02T15:22:42.904Z,2.10
2018-10-02T15:25:11.510Z,2.17
2018-10-02T15:27:40.069Z,2.07
2018-10-02T15:30:08.838Z,2.33
2018-10-02T15:32:37.342Z,2.30
2018-10-02T15:35:06.770Z,2.70
2018-10-02T15:37:35.563Z,3.23
2018-10-02T15:40:04.145Z,2.77
2018-10-02T15:42:32.675Z,3.50
2018-10-02T15:45:01.257Z,2.63
2018-10-02T15:47:29.899Z,3.77
2018-10-02T15:49:58.464Z,3.37
2018-10-02T15:52:26.971Z,3.40
2018-10-02T15:54:55.522Z,2.90
2018-10-02T15:57:24.062Z,2.43
2018-10-02T15:59:52.597Z,2.20
2018-10-02T16:02:21.319Z,2.30
2018-10-02T16:04:49.874Z,2.33
2018-10-02T16:07:18.396Z,2.50
2018-10-02T16:09:46.937Z,3.03
2018-10-02T16:12:15.453Z,2.60
2018-10-02T16:14:43.996Z,2.53
2018-10-02T16:17:12.533Z,2.70
2018-10-02T16:19:41.110Z,2.30
2018-10-02T16:22:09.669Z,2.53
2018-10-02T16:24:38.179Z,2.70
2018-10-02T16:27:06.678Z,2.70
2018-10-02T16:29:35.214Z,2.47
2018-10-02T16:32:03.731Z,2.57
2018-10-02T16:34:32.300Z,2.47
2018-10-02T16:37:00.762Z,2.77
2018-10-02T16:39:29.273Z,4.53
2018-10-02T16:41:57.774Z,2.90
2018-10-02T16:44:26.290Z,2.70
2018-10-02T16:46:54.860Z,3.47
2018-10-02T16:49:23.365Z,2.60
2018-10-02T16:51:51.869Z,7.67
2018-10-02T16:54:20.372Z,3.20
2018-10-02T16:56:48.866Z,2.90
2018-10-02T16:59:17.366Z,3.00
2018-10-02T17:01:46.025Z,2.80
2018-10-02T17:04:14.514Z,2.93
2018-10-02T17:06:43.209Z,3.17
2018-10-02T17:09:11.700Z,2.63
2018-10-02T17:11:40.573Z,3.13
2018-10-02T17:14:09.073Z,2.87
2018-10-02T17:16:37.789Z,2.67
2018-10-02T17:19:06.397Z,3.30
2018-10-02T17:21:35.786Z,3.10
2018-10-02T17:24:04.330Z,2.73
2018-10-02T17:26:32.876Z,3.40
2018-10-02T17:29:01.618Z,3.10
2018-10-02T17:31:30.272Z,3.27
2018-10-02T17:33:58.766Z,2.93
2018-10-02T17:36:27.347Z,3.00
2018-10-02T17:38:55.913Z,3.63
2018-10-02T17:41:24.551Z,4.23
2018-10-02T17:43:53.166Z,4.10
2018-10-02T17:46:21.802Z,3.80
2018-10-02T17:48:50.490Z,3.40
2018-10-02T17:51:19.296Z,3.87
2018-10-02T17:53:47.825Z,3.33
2018-10-02T17:56:16.365Z,3.90
2018-10-02T17:58:44.926Z,3.80
2018-10-02T18:01:13.548Z,3.47
2018-10-02T18:03:42.109Z,3.40
2018-10-02T18:06:10.694Z,3.43
2018-10-02T18:08:39.338Z,2.73
2018-10-02T18:11:08.149Z,2.93
2018-10-02T18:13:36.903Z,2.93
2018-10-02T18:16:05.522Z,2.83
2018-10-02T18:18:34.036Z,3.00
2018-10-02T18:21:02.594Z,2.87
2018-10-02T18:23:31.085Z,3.23
2018-10-02T18:25:59.594Z,2.87
2018-10-02T18:28:28.120Z,3.00
2018-10-02T18:30:56.633Z,3.07
2018-10-02T18:33:25.105Z,2.93
2018-10-02T18:35:53.620Z,3.20
2018-10-02T18:38:22.111Z,3.20
2018-10-02T18:40:50.649Z,3.90
2018-10-02T18:43:19.136Z,3.90
2018-10-02T18:45:47.694Z,3.97
2018-10-02T18:48:16.209Z,4.00
2018-10-02T18:50:44.761Z,4.17
2018-10-02T18:53:13.303Z,4.07
2018-10-02T18:55:41.798Z,4.30
2018-10-02T18:58:10.319Z,4.83
2018-10-02T19:00:38.833Z,4.50
2018-10-02T19:03:07.346Z,4.83
2018-10-02T19:05:35.853Z,5.33
2018-10-02T19:08:04.402Z,5.30
2018-10-02T19:10:32.928Z,5.33
2018-10-02T19:13:01.446Z,5.73
2018-10-02T19:16:36.034Z,6.17
2018-10-02T19:19:04.729Z,6.90
2018-10-02T19:21:33.297Z,6.43
2018-10-02T19:24:01.799Z,7.00
2018-10-02T19:26:30.349Z,7.27
2018-10-02T19:28:59.298Z,7.10
2018-10-02T19:31:33.075Z,7.60
2018-10-02T19:34:01.902Z,8.23
2018-10-02T19:36:30.399Z,7.77
2018-10-02T19:39:00.903Z,7.77
2018-10-02T19:41:29.989Z,6.97
2018-10-02T19:43:58.518Z,7.53
2018-10-02T19:46:28.939Z,7.00
2018-10-02T19:48:57.481Z,7.97
2018-10-02T19:51:31.381Z,8.33
2018-10-02T19:53:59.891Z,6.90
2018-10-02T19:56:28.422Z,6.73
2018-10-02T19:58:56.973Z,6.50
2018-10-02T20:01:25.512Z,6.90
2018-10-02T20:03:54.029Z,6.90
2018-10-02T20:06:22.558Z,7.20
2018-10-02T20:08:51.074Z,7.20
2018-10-02T20:11:19.680Z,6.83
2018-10-02T20:13:48.310Z,6.80
2018-10-02T20:16:16.878Z,6.27
2018-10-02T20:18:45.402Z,6.10
2018-10-02T20:21:13.935Z,5.90
2018-10-02T20:23:42.481Z,6.03
2018-10-02T20:26:11.005Z,5.77
2018-10-02T20:28:39.518Z,5.40
2018-10-02T20:31:08.022Z,5.73
2018-10-02T20:33:36.541Z,6.47
2018-10-02T20:36:05.021Z,5.77
2018-10-02T20:38:33.546Z,5.93
2018-10-02T20:41:02.090Z,6.03
2018-10-02T20:43:30.615Z,6.43
2018-10-02T20:45:59.126Z,7.90
2018-10-02T20:48:27.659Z,6.30
2018-10-02T20:50:56.160Z,5.60
2018-10-02T20:53:24.725Z,5.57
2018-10-02T20:55:53.444Z,5.03
2018-10-02T20:58:22.253Z,5.07
2018-10-02T21:00:50.735Z,5.23
2018-10-02T21:03:19.252Z,4.80
2018-10-02T21:05:47.741Z,5.17
2018-10-02T21:08:16.256Z,5.67
2018-10-02T21:10:44.757Z,5.70
2018-10-02T21:13:13.270Z,5.70
2018-10-02T21:15:41.801Z,5.50
2018-10-02T21:18:10.352Z,5.70
2018-10-02T21:20:38.865Z,6.03
2018-10-02T21:23:07.617Z,5.80
2018-10-02T21:25:36.152Z,6.17
2018-10-02T21:28:04.681Z,6.33
2018-10-02T21:30:33.221Z,7.13
2018-10-02T21:33:01.713Z,6.90
2018-10-02T21:35:30.229Z,7.07
2018-10-02T21:37:58.735Z,7.83
2018-10-02T21:40:27.325Z,8.67
2018-10-02T21:42:55.772Z,8.27
2018-10-02T21:45:24.289Z,8.27
2018-10-02T21:47:52.777Z,8.43
2018-10-02T21:50:21.298Z,8.50
2018-10-02T21:52:49.801Z,8.50
2018-10-02T21:55:18.327Z,9.03
2018-10-02T21:57:46.812Z,8.90
2018-10-02T22:00:15.349Z,8.37
2018-10-02T22:02:43.849Z,8.80
2018-10-02T22:05:12.377Z,9.07
2018-10-02T22:07:40.861Z,9.67
2018-10-02T22:10:09.376Z,9.70
2018-10-02T22:12:37.870Z,10.93
2018-10-02T22:15:06.469Z,9.73
2018-10-02T22:17:34.959Z,10.40
2018-10-02T22:20:03.557Z,9.57
2018-10-02T22:22:32.148Z,8.93
2018-10-02T22:25:00.674Z,9.80
2018-10-02T22:27:29.182Z,9.50
2018-10-02T22:29:57.715Z,9.37
2018-10-02T22:32:26.397Z,9.43
2018-10-02T22:34:54.940Z,9.40
2018-10-02T22:37:23.449Z,9.70
2018-10-02T22:39:51.993Z,9.63
2018-10-02T22:42:20.513Z,10.37
2018-10-02T22:44:49.054Z,10.07
2018-10-02T22:47:17.565Z,10.20
2018-10-02T22:49:46.097Z,9.10
2018-10-02T22:52:14.612Z,10.00
2018-10-02T22:54:43.125Z,8.57
2018-10-02T22:57:11.692Z,8.37
2018-10-02T22:59:40.205Z,8.00
2018-10-02T23:02:08.765Z,12.20
2018-10-02T23:04:37.288Z,9.17
2018-10-02T23:07:05.953Z,8.73
2018-10-02T23:09:34.487Z,8.97
2018-10-02T23:12:03.025Z,8.90
2018-10-02T23:14:31.533Z,8.03
2018-10-02T23:17:00.067Z,8.53
2018-10-02T23:19:28.621Z,9.60
2018-10-02T23:21:57.170Z,9.27
2018-10-02T23:24:25.857Z,8.70
2018-10-02T23:26:54.397Z,9.10
2018-10-02T23:29:22.938Z,9.83
2018-10-02T23:31:51.490Z,9.00
2018-10-02T23:34:20.011Z,9.67
2018-10-02T23:36:48.590Z,10.03
2018-10-02T23:39:17.097Z,9.83
2018-10-02T23:41:45.646Z,9.17
2018-10-02T23:44:14.174Z,10.87
2018-10-02T23:46:42.724Z,11.63
2018-10-02T23:49:11.240Z,10.53
2018-10-02T23:51:39.784Z,11.30
2018-10-02T23:54:08.528Z,10.10
2018-10-02T23:56:37.073Z,10.10
2018-10-02T23:59:06.147Z,10.03
